Kezdőlap
METAR-TAF:

METAR-TAF

Repülőterek :

Dzsibuti, Dzsibuti

földrajzi szélesség: 11-33N, földrajzi hosszúság: 043-10E, magasság: 49 m

Jelenlegi meteorológiai megfigyelések

A jelentés 3 órával és 45 perccel ezelõtt készült, 10:00 UTC
Keleti szél 13 kt
Hőmérséklet 35°C
Páratartalom 60%
Légköri nyomás 1009 hPa
Derült ég

METAR: HDAM 231000Z 10013KT SKC 35/26 Q1009

Idő: 16:45 (13:45 UTC)

Előrejelzés

A jelentés 2 órával és 45 perccel ezelõtt készült, 11:00 UTC
Az előrejelzés 23-én 12 óra UTC és 24-én 12 óra UTC között érvényes
Keleti szél 10 kt
Látótávolság 10 km, vagy több
felhőtlen 1500 m magasságban, és nincs gomolyfelhõ
23-én 15 óra UTC és 23-én 18 óra UTC között fokozatosan kialakuló
Északi szél kt
Kevés felhő 2300 lábon

TAF: HDAM 231100Z 2312/2412 08010KT CAVOK BECMG 2315/2318 VRB03KT FEW023 BCMG2400/2406 00000KT

Meteorológiai megfigyelések és előrejelzések több, mint 4000 repülőtéren (METAR és TAF jelentéseket).

A térképen piros és sárga pontok jelzik az elérhető meteorológiai állomásokat.

Mozgassa az egeret a pont fölött, hogy megjelenjen az állomás neve.

Azután kattintson az időjárási megfigyelések és előrejelzések megtekintéséhez.

A térkép megváltoztatása: kattintson a fekete keresztel jelölt zöld gombra ráközelítéshez, a vonallal jelölt zöld gombra távolításhoz, vagy a zöld nyilakra a szomszédos térképek eléréséhez.


METAR-TAF: